createdAt,value
2022-08-07T16:14:04.106Z,8.85
2022-08-07T16:24:35.089Z,6.85
2022-08-07T16:35:52.404Z,7.82
2022-08-07T16:56:53.202Z,6.00
2022-08-07T17:07:17.753Z,6.00
2022-08-07T17:18:22.132Z,5.88
2022-08-07T17:28:49.927Z,5.60
2022-08-07T17:39:10.686Z,9.13
2022-08-07T17:49:26.055Z,5.60
2022-08-07T17:59:43.414Z,4.72
2022-08-07T18:10:06.726Z,4.90
2022-08-07T18:21:07.526Z,6.03
2022-08-07T18:30:48.132Z,5.68
2022-08-07T18:41:10.135Z,5.00
2022-08-07T18:52:33.776Z,5.53
2022-08-07T19:02:36.319Z,4.43
2022-08-07T19:12:59.122Z,4.95
2022-08-07T19:23:57.394Z,7.97
2022-08-07T19:33:58.371Z,4.53
2022-08-07T19:44:21.170Z,3.50
2022-08-07T19:54:34.784Z,3.50
2022-08-07T20:04:52.017Z,7.70
2022-08-07T20:14:58.820Z,7.03
2022-08-07T20:25:19.412Z,3.35
2022-08-07T20:35:52.031Z,3.63
2022-08-07T20:46:26.749Z,3.42
2022-08-07T20:56:33.475Z,3.47
2022-08-07T21:06:42.436Z,3.42
2022-08-07T21:18:00.385Z,4.03
2022-08-07T21:27:39.810Z,3.88
2022-08-07T21:38:31.835Z,4.80
2022-08-07T21:48:57.757Z,4.55
2022-08-07T21:59:17.438Z,5.43
2022-08-07T22:09:27.302Z,3.63
2022-08-07T22:20:00.347Z,2.92
2022-08-07T22:30:15.669Z,2.38
2022-08-07T22:40:45.226Z,2.27
2022-08-07T22:51:11.108Z,2.38
2022-08-07T23:01:50.685Z,2.60
2022-08-07T23:12:12.410Z,3.40
2022-08-07T23:23:00.580Z,3.25
2022-08-07T23:34:22.795Z,3.13
2022-08-07T23:44:05.870Z,3.33
2022-08-07T23:54:44.028Z,3.15
